sensor_id;sensor_type;location;lat;lon;timestamp;pressure;altitude;pressure_sealevel;temperature;humidity
79269;BME280;68714;48.586;7.772;2023-05-31T00:01:33;100062.53;;;17.56;33.26
79269;BME280;68714;48.586;7.772;2023-05-31T00:03:58;100060.19;;;17.52;33.57
79269;BME280;68714;48.586;7.772;2023-05-31T00:06:24;100059.66;;;17.46;33.69
79269;BME280;68714;48.586;7.772;2023-05-31T00:08:49;100065.94;;;17.45;33.69
79269;BME280;68714;48.586;7.772;2023-05-31T00:11:15;100067.84;;;17.43;33.70
79269;BME280;68714;48.586;7.772;2023-05-31T00:13:40;100065.41;;;17.40;33.75
79269;BME280;68714;48.586;7.772;2023-05-31T00:16:07;100070.81;;;17.39;33.70
79269;BME280;68714;48.586;7.772;2023-05-31T00:18:32;100059.41;;;17.37;33.93
79269;BME280;68714;48.586;7.772;2023-05-31T00:20:58;100063.13;;;17.34;33.94
79269;BME280;68714;48.586;7.772;2023-05-31T00:23:23;100059.72;;;17.32;34.06
79269;BME280;68714;48.586;7.772;2023-05-31T00:25:48;100058.41;;;17.25;34.18
79269;BME280;68714;48.586;7.772;2023-05-31T00:28:14;100063.94;;;17.22;34.19
79269;BME280;68714;48.586;7.772;2023-05-31T00:30:40;100061.47;;;17.19;34.19
79269;BME280;68714;48.586;7.772;2023-05-31T00:33:05;100060.72;;;17.17;34.39
79269;BME280;68714;48.586;7.772;2023-05-31T00:35:31;100058.38;;;17.12;34.46
79269;BME280;68714;48.586;7.772;2023-05-31T00:37:56;100053.31;;;17.07;34.48
79269;BME280;68714;48.586;7.772;2023-05-31T00:40:21;100067.81;;;17.03;34.69
79269;BME280;68714;48.586;7.772;2023-05-31T00:42:47;100070.56;;;17.02;34.49
79269;BME280;68714;48.586;7.772;2023-05-31T00:45:12;100066.28;;;16.99;34.71
79269;BME280;68714;48.586;7.772;2023-05-31T00:47:38;100067.31;;;16.97;34.85
79269;BME280;68714;48.586;7.772;2023-05-31T00:50:04;100076.31;;;16.96;34.80
79269;BME280;68714;48.586;7.772;2023-05-31T00:52:31;100072.00;;;16.93;34.93
79269;BME280;68714;48.586;7.772;2023-05-31T00:54:58;100075.81;;;16.89;35.04
79269;BME280;68714;48.586;7.772;2023-05-31T00:57:24;100075.06;;;16.87;34.97
79269;BME280;68714;48.586;7.772;2023-05-31T00:59:50;100080.66;;;16.82;35.16
79269;BME280;68714;48.586;7.772;2023-05-31T01:02:16;100072.66;;;16.82;35.15
79269;BME280;68714;48.586;7.772;2023-05-31T01:04:44;100081.69;;;16.80;35.24
79269;BME280;68714;48.586;7.772;2023-05-31T01:07:11;100087.13;;;16.78;35.49
79269;BME280;68714;48.586;7.772;2023-05-31T01:09:37;100090.88;;;16.75;35.37
79269;BME280;68714;48.586;7.772;2023-05-31T01:12:15;100078.59;;;16.73;36.04
79269;BME280;68714;48.586;7.772;2023-05-31T01:15:20;100081.63;;;16.67;36.26
79269;BME280;68714;48.586;7.772;2023-05-31T01:20:17;100087.63;;;16.70;35.49
79269;BME280;68714;48.586;7.772;2023-05-31T01:28:33;100071.28;;;16.62;36.23
79269;BME280;68714;48.586;7.772;2023-05-31T01:31:03;100076.88;;;16.57;35.90
79269;BME280;68714;48.586;7.772;2023-05-31T01:33:29;100075.19;;;16.42;37.48
79269;BME280;68714;48.586;7.772;2023-05-31T01:35:55;100080.31;;;16.45;35.97
79269;BME280;68714;48.586;7.772;2023-05-31T01:38:20;100079.63;;;16.41;36.13
79269;BME280;68714;48.586;7.772;2023-05-31T01:40:45;100083.47;;;16.37;36.44
79269;BME280;68714;48.586;7.772;2023-05-31T01:43:12;100088.00;;;16.35;36.61
79269;BME280;68714;48.586;7.772;2023-05-31T01:45:38;100098.75;;;16.34;36.60
79269;BME280;68714;48.586;7.772;2023-05-31T01:48:06;100088.19;;;16.32;36.59
79269;BME280;68714;48.586;7.772;2023-05-31T01:50:35;100080.38;;;16.29;36.76
79269;BME280;68714;48.586;7.772;2023-05-31T01:53:01;100080.66;;;16.25;36.93
79269;BME280;68714;48.586;7.772;2023-05-31T01:55:27;100081.72;;;16.22;36.98
79269;BME280;68714;48.586;7.772;2023-05-31T01:57:54;100079.81;;;16.24;36.80
79269;BME280;68714;48.586;7.772;2023-05-31T02:00:21;100081.63;;;16.23;37.08
79269;BME280;68714;48.586;7.772;2023-05-31T02:02:49;100075.63;;;16.20;36.97
79269;BME280;68714;48.586;7.772;2023-05-31T02:05:17;100078.38;;;16.18;37.17
79269;BME280;68714;48.586;7.772;2023-05-31T02:07:44;100087.63;;;16.13;37.27
79269;BME280;68714;48.586;7.772;2023-05-31T02:10:11;100080.66;;;16.10;37.14
79269;BME280;68714;48.586;7.772;2023-05-31T02:12:37;100074.69;;;16.07;37.50
79269;BME280;68714;48.586;7.772;2023-05-31T02:15:03;100074.78;;;16.05;37.59
79269;BME280;68714;48.586;7.772;2023-05-31T02:17:29;100082.94;;;16.02;37.85
79269;BME280;68714;48.586;7.772;2023-05-31T02:19:58;100073.50;;;15.96;37.80
79269;BME280;68714;48.586;7.772;2023-05-31T02:22:24;100074.53;;;15.94;37.94
79269;BME280;68714;48.586;7.772;2023-05-31T02:24:50;100078.28;;;15.91;38.05
79269;BME280;68714;48.586;7.772;2023-05-31T02:27:16;100068.66;;;15.89;37.86
79269;BME280;68714;48.586;7.772;2023-05-31T02:29:44;100072.16;;;15.89;38.03
79269;BME280;68714;48.586;7.772;2023-05-31T02:32:10;100077.47;;;15.89;37.92
79269;BME280;68714;48.586;7.772;2023-05-31T02:34:35;100067.91;;;15.86;38.26
79269;BME280;68714;48.586;7.772;2023-05-31T02:37:01;100077.00;;;15.82;38.28
79269;BME280;68714;48.586;7.772;2023-05-31T02:39:28;100076.31;;;15.79;38.42
79269;BME280;68714;48.586;7.772;2023-05-31T02:41:54;100076.53;;;15.74;38.62
79269;BME280;68714;48.586;7.772;2023-05-31T02:44:20;100078.53;;;15.70;38.54
79269;BME280;68714;48.586;7.772;2023-05-31T02:46:46;100075.97;;;15.69;38.57
79269;BME280;68714;48.586;7.772;2023-05-31T02:49:11;100070.75;;;15.67;38.84
79269;BME280;68714;48.586;7.772;2023-05-31T02:51:37;100073.66;;;15.63;38.97
79269;BME280;68714;48.586;7.772;2023-05-31T02:54:02;100067.59;;;15.61;38.75
79269;BME280;68714;48.586;7.772;2023-05-31T02:56:28;100073.09;;;15.58;39.09
79269;BME280;68714;48.586;7.772;2023-05-31T02:58:53;100071.38;;;15.57;39.21
79269;BME280;68714;48.586;7.772;2023-05-31T03:01:18;100074.41;;;15.50;39.36
79269;BME280;68714;48.586;7.772;2023-05-31T03:03:44;100072.56;;;15.51;39.19
79269;BME280;68714;48.586;7.772;2023-05-31T03:06:10;100079.72;;;15.50;39.34
79269;BME280;68714;48.586;7.772;2023-05-31T03:08:37;100086.06;;;15.48;39.53
79269;BME280;68714;48.586;7.772;2023-05-31T03:11:03;100075.59;;;15.45;39.50
79269;BME280;68714;48.586;7.772;2023-05-31T03:13:28;100072.25;;;15.41;39.75
79269;BME280;68714;48.586;7.772;2023-05-31T03:15:53;100083.16;;;15.37;39.92
79269;BME280;68714;48.586;7.772;2023-05-31T03:18:20;100093.13;;;15.33;39.70
79269;BME280;68714;48.586;7.772;2023-05-31T03:20:45;100094.16;;;15.30;39.87
79269;BME280;68714;48.586;7.772;2023-05-31T03:23:10;100092.53;;;15.28;40.01
79269;BME280;68714;48.586;7.772;2023-05-31T03:25:37;100097.06;;;15.26;40.08
79269;BME280;68714;48.586;7.772;2023-05-31T03:28:03;100098.97;;;15.24;40.07
79269;BME280;68714;48.586;7.772;2023-05-31T03:30:29;100100.75;;;15.23;40.20
79269;BME280;68714;48.586;7.772;2023-05-31T03:32:54;100089.44;;;15.20;40.38
79269;BME280;68714;48.586;7.772;2023-05-31T03:35:21;100093.22;;;15.15;40.39
79269;BME280;68714;48.586;7.772;2023-05-31T03:37:47;100105.66;;;15.15;40.58
79269;BME280;68714;48.586;7.772;2023-05-31T03:40:12;100098.78;;;15.11;40.68
79269;BME280;68714;48.586;7.772;2023-05-31T03:42:37;100094.59;;;15.07;40.71
79269;BME280;68714;48.586;7.772;2023-05-31T03:45:03;100103.53;;;15.06;40.85
79269;BME280;68714;48.586;7.772;2023-05-31T03:47:29;100100.78;;;15.07;40.77
79269;BME280;68714;48.586;7.772;2023-05-31T03:49:54;100106.09;;;15.07;40.71
79269;BME280;68714;48.586;7.772;2023-05-31T03:52:19;100109.44;;;15.11;40.84
79269;BME280;68714;48.586;7.772;2023-05-31T03:54:45;100104.03;;;15.12;40.91
79269;BME280;68714;48.586;7.772;2023-05-31T03:57:12;100109.16;;;15.15;40.78
79269;BME280;68714;48.586;7.772;2023-05-31T03:59:37;100108.31;;;15.15;40.58
79269;BME280;68714;48.586;7.772;2023-05-31T04:02:03;100114.31;;;15.19;40.94
79269;BME280;68714;48.586;7.772;2023-05-31T04:04:29;100112.53;;;15.19;40.83
79269;BME280;68714;48.586;7.772;2023-05-31T04:06:54;100114.13;;;15.22;40.83
79269;BME280;68714;48.586;7.772;2023-05-31T04:09:20;100125.66;;;15.22;40.91
79269;BME280;68714;48.586;7.772;2023-05-31T04:11:46;100116.88;;;15.20;40.96
79269;BME280;68714;48.586;7.772;2023-05-31T04:14:12;100123.06;;;15.21;40.92
79269;BME280;68714;48.586;7.772;2023-05-31T04:16:38;100121.34;;;15.20;41.43
79269;BME280;68714;48.586;7.772;2023-05-31T04:19:04;100122.13;;;15.22;41.18
79269;BME280;68714;48.586;7.772;2023-05-31T04:21:30;100121.94;;;15.25;41.09
79269;BME280;68714;48.586;7.772;2023-05-31T04:23:57;100119.38;;;15.23;41.20
79269;BME280;68714;48.586;7.772;2023-05-31T04:26:22;100110.47;;;15.24;41.17
79269;BME280;68714;48.586;7.772;2023-05-31T04:28:48;100118.44;;;15.24;41.02
79269;BME280;68714;48.586;7.772;2023-05-31T04:31:19;100115.69;;;15.26;41.44
79269;BME280;68714;48.586;7.772;2023-05-31T04:33:50;100126.50;;;15.23;41.63
79269;BME280;68714;48.586;7.772;2023-05-31T04:36:19;100128.41;;;15.21;41.57
79269;BME280;68714;48.586;7.772;2023-05-31T04:38:45;100122.03;;;15.23;41.71
79269;BME280;68714;48.586;7.772;2023-05-31T04:41:12;100120.00;;;15.28;41.59
79269;BME280;68714;48.586;7.772;2023-05-31T04:43:40;100123.41;;;15.30;41.63
79269;BME280;68714;48.586;7.772;2023-05-31T04:46:05;100120.56;;;15.33;41.61
79269;BME280;68714;48.586;7.772;2023-05-31T04:48:31;100114.16;;;15.38;41.59
79269;BME280;68714;48.586;7.772;2023-05-31T04:50:57;100115.84;;;15.39;41.69
79269;BME280;68714;48.586;7.772;2023-05-31T04:53:24;100114.91;;;15.40;41.59
79269;BME280;68714;48.586;7.772;2023-05-31T04:55:50;100110.34;;;15.42;41.49
79269;BME280;68714;48.586;7.772;2023-05-31T04:58:17;100123.19;;;15.49;41.63
79269;BME280;68714;48.586;7.772;2023-05-31T05:00:42;100121.69;;;15.45;41.70
79269;BME280;68714;48.586;7.772;2023-05-31T05:03:11;100123.38;;;15.46;42.04
79269;BME280;68714;48.586;7.772;2023-05-31T05:05:37;100133.94;;;15.48;41.95
79269;BME280;68714;48.586;7.772;2023-05-31T05:08:03;100131.00;;;15.52;41.99
79269;BME280;68714;48.586;7.772;2023-05-31T05:10:29;100128.97;;;15.58;41.89
79269;BME280;68714;48.586;7.772;2023-05-31T05:12:54;100139.44;;;15.61;42.00
79269;BME280;68714;48.586;7.772;2023-05-31T05:15:20;100138.19;;;15.66;41.82
79269;BME280;68714;48.586;7.772;2023-05-31T05:17:45;100148.47;;;15.73;41.74
79269;BME280;68714;48.586;7.772;2023-05-31T05:20:12;100154.44;;;15.78;41.76
79269;BME280;68714;48.586;7.772;2023-05-31T05:22:38;100150.81;;;15.79;41.75
79269;BME280;68714;48.586;7.772;2023-05-31T05:25:04;100141.72;;;15.83;41.87
79269;BME280;68714;48.586;7.772;2023-05-31T05:27:30;100153.47;;;15.79;41.74
79269;BME280;68714;48.586;7.772;2023-05-31T05:29:57;100160.66;;;15.77;41.85
79269;BME280;68714;48.586;7.772;2023-05-31T05:32:22;100155.19;;;15.80;41.83
79269;BME280;68714;48.586;7.772;2023-05-31T05:34:48;100160.25;;;15.84;41.72
79269;BME280;68714;48.586;7.772;2023-05-31T05:37:14;100160.06;;;15.87;41.75
79269;BME280;68714;48.586;7.772;2023-05-31T05:39:39;100151.63;;;15.95;41.62
79269;BME280;68714;48.586;7.772;2023-05-31T05:42:05;100156.41;;;16.04;41.68
79269;BME280;68714;48.586;7.772;2023-05-31T05:44:31;100153.22;;;16.14;41.70
79269;BME280;68714;48.586;7.772;2023-05-31T05:46:58;100154.28;;;16.26;41.39
79269;BME280;68714;48.586;7.772;2023-05-31T05:49:24;100154.88;;;16.31;41.37
79269;BME280;68714;48.586;7.772;2023-05-31T05:51:49;100155.28;;;16.39;41.22
79269;BME280;68714;48.586;7.772;2023-05-31T05:54:17;100154.72;;;16.48;41.08
79269;BME280;68714;48.586;7.772;2023-05-31T05:56:42;100153.97;;;16.61;41.14
79269;BME280;68714;48.586;7.772;2023-05-31T05:59:08;100156.16;;;16.68;41.09
79269;BME280;68714;48.586;7.772;2023-05-31T06:01:34;100143.19;;;16.76;40.81
79269;BME280;68714;48.586;7.772;2023-05-31T06:04:02;100152.53;;;16.84;40.71
79269;BME280;68714;48.586;7.772;2023-05-31T06:06:28;100164.22;;;16.81;40.63
79269;BME280;68714;48.586;7.772;2023-05-31T06:08:53;100145.88;;;16.76;40.78
79269;BME280;68714;48.586;7.772;2023-05-31T06:11:19;100159.28;;;16.75;40.70
79269;BME280;68714;48.586;7.772;2023-05-31T06:13:45;100153.38;;;16.84;40.70
79269;BME280;68714;48.586;7.772;2023-05-31T06:16:10;100154.75;;;16.91;40.67
79269;BME280;68714;48.586;7.772;2023-05-31T06:18:36;100149.41;;;16.91;40.43
79269;BME280;68714;48.586;7.772;2023-05-31T06:21:03;100142.16;;;16.93;40.44
79269;BME280;68714;48.586;7.772;2023-05-31T06:23:29;100156.38;;;16.94;40.36
79269;BME280;68714;48.586;7.772;2023-05-31T06:25:56;100148.09;;;16.99;40.50
79269;BME280;68714;48.586;7.772;2023-05-31T06:28:24;100139.50;;;17.08;40.50
79269;BME280;68714;48.586;7.772;2023-05-31T06:30:49;100140.75;;;17.17;40.45
79269;BME280;68714;48.586;7.772;2023-05-31T06:33:16;100139.94;;;17.29;40.25
79269;BME280;68714;48.586;7.772;2023-05-31T06:35:41;100138.94;;;17.44;40.14
79269;BME280;68714;48.586;7.772;2023-05-31T06:38:09;100143.78;;;17.52;40.01
79269;BME280;68714;48.586;7.772;2023-05-31T06:40:40;100147.63;;;17.61;39.88
79269;BME280;68714;48.586;7.772;2023-05-31T06:43:05;100150.47;;;17.72;39.81
79269;BME280;68714;48.586;7.772;2023-05-31T06:45:31;100152.44;;;17.83;39.71
79269;BME280;68714;48.586;7.772;2023-05-31T06:47:59;100159.66;;;17.95;39.64
79269;BME280;68714;48.586;7.772;2023-05-31T06:50:25;100152.47;;;17.96;39.41
79269;BME280;68714;48.586;7.772;2023-05-31T06:52:50;100157.06;;;17.94;39.47
79269;BME280;68714;48.586;7.772;2023-05-31T06:55:16;100157.47;;;17.88;39.53
79269;BME280;68714;48.586;7.772;2023-05-31T06:57:41;100152.97;;;17.88;39.41
79269;BME280;68714;48.586;7.772;2023-05-31T07:00:07;100146.41;;;17.94;39.29
79269;BME280;68714;48.586;7.772;2023-05-31T07:02:33;100146.09;;;17.98;39.45
79269;BME280;68714;48.586;7.772;2023-05-31T07:04:58;100144.63;;;18.07;39.28
79269;BME280;68714;48.586;7.772;2023-05-31T07:07:25;100139.59;;;18.15;39.10
79269;BME280;68714;48.586;7.772;2023-05-31T07:09:51;100146.78;;;18.28;38.90
79269;BME280;68714;48.586;7.772;2023-05-31T07:12:16;100147.09;;;18.36;38.82
79269;BME280;68714;48.586;7.772;2023-05-31T07:14:42;100145.81;;;18.42;38.82
79269;BME280;68714;48.586;7.772;2023-05-31T07:17:07;100142.94;;;18.45;38.79
79269;BME280;68714;48.586;7.772;2023-05-31T07:19:43;100147.00;;;18.50;38.49
79269;BME280;68714;48.586;7.772;2023-05-31T07:22:08;100146.97;;;18.63;38.53
79269;BME280;68714;48.586;7.772;2023-05-31T07:24:34;100140.66;;;18.77;38.20
79269;BME280;68714;48.586;7.772;2023-05-31T07:26:59;100146.78;;;18.92;38.38
79269;BME280;68714;48.586;7.772;2023-05-31T07:29:25;100143.31;;;19.16;38.11
79269;BME280;68714;48.586;7.772;2023-05-31T07:31:51;100139.91;;;19.38;37.87
79269;BME280;68714;48.586;7.772;2023-05-31T07:34:16;100134.28;;;19.54;37.53
79269;BME280;68714;48.586;7.772;2023-05-31T07:36:42;100132.28;;;19.69;37.50
79269;BME280;68714;48.586;7.772;2023-05-31T07:39:07;100131.22;;;19.95;37.42
79269;BME280;68714;48.586;7.772;2023-05-31T07:41:36;100120.88;;;20.02;36.95
79269;BME280;68714;48.586;7.772;2023-05-31T07:44:02;100128.56;;;20.07;36.72
79269;BME280;68714;48.586;7.772;2023-05-31T07:46:28;100127.97;;;20.03;36.52
79269;BME280;68714;48.586;7.772;2023-05-31T07:48:53;100131.84;;;20.10;36.44
79269;BME280;68714;48.586;7.772;2023-05-31T07:51:20;100120.78;;;20.15;36.55
79269;BME280;68714;48.586;7.772;2023-05-31T07:53:47;100122.41;;;20.29;36.51
79269;BME280;68714;48.586;7.772;2023-05-31T07:56:13;100121.34;;;20.43;36.37
79269;BME280;68714;48.586;7.772;2023-05-31T07:58:39;100119.16;;;20.48;36.27
79269;BME280;68714;48.586;7.772;2023-05-31T08:01:04;100119.63;;;20.53;36.04
79269;BME280;68714;48.586;7.772;2023-05-31T08:03:30;100118.06;;;20.51;36.11
79269;BME280;68714;48.586;7.772;2023-05-31T08:05:58;100111.34;;;20.56;36.00
79269;BME280;68714;48.586;7.772;2023-05-31T08:08:24;100107.47;;;20.60;35.98
79269;BME280;68714;48.586;7.772;2023-05-31T08:10:50;100113.22;;;20.78;35.88
79269;BME280;68714;48.586;7.772;2023-05-31T08:13:15;100100.38;;;20.93;35.74
79269;BME280;68714;48.586;7.772;2023-05-31T08:15:41;100111.38;;;21.01;35.33
79269;BME280;68714;48.586;7.772;2023-05-31T08:18:06;100091.00;;;21.10;35.46
79269;BME280;68714;48.586;7.772;2023-05-31T08:20:32;100094.38;;;21.24;35.04
79269;BME280;68714;48.586;7.772;2023-05-31T08:22:57;100088.22;;;21.44;35.08
79269;BME280;68714;48.586;7.772;2023-05-31T08:25:24;100087.56;;;21.63;35.10
79269;BME280;68714;48.586;7.772;2023-05-31T08:27:49;100089.34;;;21.74;34.88
79269;BME280;68714;48.586;7.772;2023-05-31T08:30:15;100087.78;;;21.92;34.71
79269;BME280;68714;48.586;7.772;2023-05-31T08:32:41;100098.66;;;21.91;34.40
79269;BME280;68714;48.586;7.772;2023-05-31T08:35:07;100088.56;;;21.83;34.43
79269;BME280;68714;48.586;7.772;2023-05-31T08:37:37;100084.06;;;21.84;33.83
79269;BME280;68714;48.586;7.772;2023-05-31T08:40:04;100086.19;;;21.69;34.17
79269;BME280;68714;48.586;7.772;2023-05-31T08:42:48;100080.06;;;21.67;33.39
79269;BME280;68714;48.586;7.772;2023-05-31T08:45:17;100077.50;;;21.77;34.03
79269;BME280;68714;48.586;7.772;2023-05-31T08:47:45;100070.66;;;21.72;34.13
79269;BME280;68714;48.586;7.772;2023-05-31T08:50:11;100076.97;;;21.83;33.97
79269;BME280;68714;48.586;7.772;2023-05-31T08:52:38;100065.31;;;21.94;33.94
79269;BME280;68714;48.586;7.772;2023-05-31T08:55:04;100063.06;;;21.99;34.04
79269;BME280;68714;48.586;7.772;2023-05-31T08:57:30;100059.84;;;22.05;33.89
79269;BME280;68714;48.586;7.772;2023-05-31T08:59:57;100071.88;;;22.01;33.81
79269;BME280;68714;48.586;7.772;2023-05-31T09:02:24;100059.59;;;22.08;34.13
79269;BME280;68714;48.586;7.772;2023-05-31T09:04:50;100070.22;;;22.31;34.07
79269;BME280;68714;48.586;7.772;2023-05-31T09:07:16;100062.53;;;22.47;33.89
79269;BME280;68714;48.586;7.772;2023-05-31T09:09:41;100065.25;;;22.57;33.36
79269;BME280;68714;48.586;7.772;2023-05-31T09:12:07;100052.56;;;22.69;33.33
79269;BME280;68714;48.586;7.772;2023-05-31T09:14:33;100061.25;;;22.82;33.36
79269;BME280;68714;48.586;7.772;2023-05-31T09:16:59;100053.59;;;22.87;33.21
79269;BME280;68714;48.586;7.772;2023-05-31T09:19:25;100057.16;;;22.97;33.31
79269;BME280;68714;48.586;7.772;2023-05-31T09:21:52;100054.47;;;22.97;32.86
79269;BME280;68714;48.586;7.772;2023-05-31T09:24:18;100053.06;;;23.03;33.09
79269;BME280;68714;48.586;7.772;2023-05-31T09:26:52;100056.19;;;23.08;33.06
79269;BME280;68714;48.586;7.772;2023-05-31T09:29:18;100046.34;;;23.19;32.68
79269;BME280;68714;48.586;7.772;2023-05-31T09:31:45;100052.41;;;23.21;32.82
79269;BME280;68714;48.586;7.772;2023-05-31T09:34:29;100045.84;;;23.04;31.93
79269;BME280;68714;48.586;7.772;2023-05-31T09:36:58;100045.19;;;23.11;32.69
79269;BME280;68714;48.586;7.772;2023-05-31T09:39:24;100050.72;;;23.20;32.87
79269;BME280;68714;48.586;7.772;2023-05-31T09:41:51;100037.97;;;23.41;32.58
79269;BME280;68714;48.586;7.772;2023-05-31T09:44:17;100044.63;;;23.66;32.51
79269;BME280;68714;48.586;7.772;2023-05-31T09:46:44;100041.22;;;23.74;32.51
79269;BME280;68714;48.586;7.772;2023-05-31T09:49:10;100030.72;;;23.81;32.27
79269;BME280;68714;48.586;7.772;2023-05-31T09:51:36;100029.88;;;23.80;32.32
79269;BME280;68714;48.586;7.772;2023-05-31T09:54:10;100030.00;;;23.89;32.18
79269;BME280;68714;48.586;7.772;2023-05-31T09:56:37;100032.13;;;24.04;32.36
79269;BME280;68714;48.586;7.772;2023-05-31T09:59:04;100029.69;;;24.11;32.45
79269;BME280;68714;48.586;7.772;2023-05-31T10:01:32;100032.19;;;24.22;31.86
79269;BME280;68714;48.586;7.772;2023-05-31T10:03:58;100038.47;;;24.23;32.03
79269;BME280;68714;48.586;7.772;2023-05-31T10:06:29;100019.69;;;24.31;31.80
79269;BME280;68714;48.586;7.772;2023-05-31T10:08:57;100028.59;;;24.32;31.68
79269;BME280;68714;48.586;7.772;2023-05-31T10:11:26;100025.06;;;24.41;31.06
79269;BME280;68714;48.586;7.772;2023-05-31T10:13:56;100034.38;;;24.47;31.54
79269;BME280;68714;48.586;7.772;2023-05-31T10:16:26;100035.19;;;24.57;31.62
79269;BME280;68714;48.586;7.772;2023-05-31T10:18:57;100023.88;;;24.44;31.13
79269;BME280;68714;48.586;7.772;2023-05-31T10:21:30;100029.03;;;24.37;31.50
79269;BME280;68714;48.586;7.772;2023-05-31T10:24:01;100016.44;;;24.28;31.63
79269;BME280;68714;48.586;7.772;2023-05-31T10:26:34;100019.00;;;24.19;31.24
79269;BME280;68714;48.586;7.772;2023-05-31T10:29:34;100024.44;;;24.10;30.82
79269;BME280;68714;48.586;7.772;2023-05-31T10:32:24;100012.09;;;24.17;31.08
79269;BME280;68714;48.586;7.772;2023-05-31T10:34:52;100014.13;;;24.33;31.46
79269;BME280;68714;48.586;7.772;2023-05-31T10:37:20;100013.16;;;24.34;30.88
79269;BME280;68714;48.586;7.772;2023-05-31T10:39:54;100026.34;;;24.37;30.58
79269;BME280;68714;48.586;7.772;2023-05-31T10:45:12;100016.06;;;24.50;30.59
79269;BME280;68714;48.586;7.772;2023-05-31T10:47:52;100013.75;;;24.55;30.42
79269;BME280;68714;48.586;7.772;2023-05-31T10:50:20;100004.41;;;24.78;30.55
79269;BME280;68714;48.586;7.772;2023-05-31T10:52:50;100004.41;;;24.78;29.95
79269;BME280;68714;48.586;7.772;2023-05-31T10:57:43;99997.97;;;24.88;30.61
79269;BME280;68714;48.586;7.772;2023-05-31T11:00:09;100000.16;;;25.03;29.88
79269;BME280;68714;48.586;7.772;2023-05-31T11:02:45;99982.97;;;25.04;30.10
79269;BME280;68714;48.586;7.772;2023-05-31T11:05:30;99988.50;;;25.20;28.34
79269;BME280;68714;48.586;7.772;2023-05-31T11:07:57;99990.13;;;25.49;29.50
79269;BME280;68714;48.586;7.772;2023-05-31T11:10:30;99986.66;;;25.57;28.46
79269;BME280;68714;48.586;7.772;2023-05-31T11:13:02;99985.84;;;25.64;28.78
79269;BME280;68714;48.586;7.772;2023-05-31T11:15:45;99975.16;;;25.55;27.16
79269;BME280;68714;48.586;7.772;2023-05-31T11:18:22;99985.41;;;25.51;27.55
79269;BME280;68714;48.586;7.772;2023-05-31T11:20:49;99985.84;;;25.64;28.68
79269;BME280;68714;48.586;7.772;2023-05-31T11:23:29;99977.53;;;25.58;27.64
79269;BME280;68714;48.586;7.772;2023-05-31T11:26:15;99983.34;;;25.45;27.58
79269;BME280;68714;48.586;7.772;2023-05-31T11:29:00;99977.94;;;25.45;27.23
79269;BME280;68714;48.586;7.772;2023-05-31T11:34:23;99973.50;;;25.62;27.55
79269;BME280;68714;48.586;7.772;2023-05-31T11:36:49;99953.59;;;25.63;28.03
79269;BME280;68714;48.586;7.772;2023-05-31T11:39:16;99960.84;;;25.62;28.09
79269;BME280;68714;48.586;7.772;2023-05-31T11:41:43;99966.25;;;25.62;28.23
79269;BME280;68714;48.586;7.772;2023-05-31T11:44:13;99957.03;;;25.73;27.97
79269;BME280;68714;48.586;7.772;2023-05-31T11:46:43;99951.25;;;25.94;27.93
79269;BME280;68714;48.586;7.772;2023-05-31T11:49:09;99957.50;;;25.95;27.50
79269;BME280;68714;48.586;7.772;2023-05-31T11:51:36;99950.19;;;25.87;27.27
79269;BME280;68714;48.586;7.772;2023-05-31T11:54:03;99954.84;;;25.77;27.27
79269;BME280;68714;48.586;7.772;2023-05-31T11:56:30;99945.78;;;25.86;27.84
79269;BME280;68714;48.586;7.772;2023-05-31T11:58:58;99944.44;;;26.08;27.56
79269;BME280;68714;48.586;7.772;2023-05-31T12:01:24;99952.09;;;25.95;26.87
79269;BME280;68714;48.586;7.772;2023-05-31T12:03:58;99951.91;;;25.88;25.60
79269;BME280;68714;48.586;7.772;2023-05-31T12:06:25;99952.75;;;25.89;26.81
79269;BME280;68714;48.586;7.772;2023-05-31T12:08:52;99936.53;;;25.89;26.50
79269;BME280;68714;48.586;7.772;2023-05-31T12:11:19;99943.06;;;26.04;26.82
79269;BME280;68714;48.586;7.772;2023-05-31T12:13:45;99935.22;;;26.27;26.63
79269;BME280;68714;48.586;7.772;2023-05-31T12:16:10;99931.41;;;26.46;26.32
79269;BME280;68714;48.586;7.772;2023-05-31T12:18:35;99937.84;;;26.53;26.13
79269;BME280;68714;48.586;7.772;2023-05-31T12:21:09;99918.28;;;26.68;25.75
79269;BME280;68714;48.586;7.772;2023-05-31T12:23:58;99918.97;;;26.70;24.74
79269;BME280;68714;48.586;7.772;2023-05-31T12:26:24;99919.84;;;26.79;25.97
79269;BME280;68714;48.586;7.772;2023-05-31T12:28:50;99913.41;;;26.88;25.94
79269;BME280;68714;48.586;7.772;2023-05-31T12:31:23;99919.84;;;26.95;24.80
79269;BME280;68714;48.586;7.772;2023-05-31T12:33:57;99916.97;;;26.88;24.74
79269;BME280;68714;48.586;7.772;2023-05-31T12:36:25;99907.66;;;26.99;25.54
79269;BME280;68714;48.586;7.772;2023-05-31T12:38:57;99910.38;;;26.99;25.08
79269;BME280;68714;48.586;7.772;2023-05-31T12:41:25;99916.31;;;27.03;25.76
79269;BME280;68714;48.586;7.772;2023-05-31T12:43:53;99918.69;;;27.14;25.41
79269;BME280;68714;48.586;7.772;2023-05-31T12:46:18;99902.59;;;27.13;25.04
79269;BME280;68714;48.586;7.772;2023-05-31T12:48:48;99906.13;;;26.97;24.28
79269;BME280;68714;48.586;7.772;2023-05-31T12:51:20;99910.00;;;26.86;24.54
79269;BME280;68714;48.586;7.772;2023-05-31T12:53:46;99914.91;;;26.91;25.39
79269;BME280;68714;48.586;7.772;2023-05-31T12:56:11;99891.41;;;26.91;25.49
79269;BME280;68714;48.586;7.772;2023-05-31T12:58:37;99903.09;;;26.92;25.51
79269;BME280;68714;48.586;7.772;2023-05-31T13:01:02;99902.75;;;26.95;25.59
79269;BME280;68714;48.586;7.772;2023-05-31T13:03:27;99895.00;;;27.00;25.42
79269;BME280;68714;48.586;7.772;2023-05-31T13:05:53;99901.41;;;26.99;25.53
79269;BME280;68714;48.586;7.772;2023-05-31T13:08:18;99894.31;;;27.06;25.18
79269;BME280;68714;48.586;7.772;2023-05-31T13:10:44;99902.78;;;27.03;24.92